sensor_id;sensor_type;location;lat;lon;timestamp;pressure;altitude;pressure_sealevel;temperature;humidity
19676;BME280;39539;52.202;9.876;2022-10-16T00:00:30;100280.91;;;13.07;100.00
19676;BME280;39539;52.202;9.876;2022-10-16T00:02:55;100279.06;;;12.95;100.00
19676;BME280;39539;52.202;9.876;2022-10-16T00:05:20;100290.91;;;12.99;100.00
19676;BME280;39539;52.202;9.876;2022-10-16T00:07:46;100293.78;;;12.98;100.00
19676;BME280;39539;52.202;9.876;2022-10-16T00:10:11;100291.34;;;12.96;100.00
19676;BME280;39539;52.202;9.876;2022-10-16T00:12:36;100292.97;;;12.97;100.00
19676;BME280;39539;52.202;9.876;2022-10-16T00:15:02;100275.56;;;12.83;100.00
19676;BME280;39539;52.202;9.876;2022-10-16T00:17:30;100286.59;;;12.87;100.00
19676;BME280;39539;52.202;9.876;2022-10-16T00:19:55;100293.66;;;12.81;100.00
19676;BME280;39539;52.202;9.876;2022-10-16T00:22:22;100291.31;;;12.73;100.00
19676;BME280;39539;52.202;9.876;2022-10-16T00:24:47;100294.59;;;12.75;100.00
19676;BME280;39539;52.202;9.876;2022-10-16T00:27:12;100273.00;;;12.65;100.00
19676;BME280;39539;52.202;9.876;2022-10-16T00:29:38;100292.72;;;12.75;100.00
19676;BME280;39539;52.202;9.876;2022-10-16T00:32:03;100288.06;;;12.71;100.00
19676;BME280;39539;52.202;9.876;2022-10-16T00:34:28;100313.38;;;12.80;100.00
19676;BME280;39539;52.202;9.876;2022-10-16T00:36:54;100303.50;;;12.69;100.00
19676;BME280;39539;52.202;9.876;2022-10-16T00:39:19;100298.75;;;12.71;100.00
19676;BME280;39539;52.202;9.876;2022-10-16T00:41:44;100311.06;;;12.72;100.00
19676;BME280;39539;52.202;9.876;2022-10-16T00:47:09;100314.75;;;12.71;100.00
19676;BME280;39539;52.202;9.876;2022-10-16T00:49:37;100321.84;;;12.77;100.00
19676;BME280;39539;52.202;9.876;2022-10-16T00:52:02;100324.88;;;12.80;100.00
19676;BME280;39539;52.202;9.876;2022-10-16T00:54:31;100330.78;;;12.83;100.00
19676;BME280;39539;52.202;9.876;2022-10-16T00:57:00;100326.00;;;12.85;100.00
19676;BME280;39539;52.202;9.876;2022-10-16T00:59:33;100329.63;;;12.90;100.00
19676;BME280;39539;52.202;9.876;2022-10-16T01:01:59;100324.88;;;12.92;100.00
19676;BME280;39539;52.202;9.876;2022-10-16T01:04:26;100338.41;;;12.91;100.00
19676;BME280;39539;52.202;9.876;2022-10-16T01:14:49;100312.06;;;12.71;100.00
19676;BME280;39539;52.202;9.876;2022-10-16T01:28:39;100346.31;;;12.74;100.00
19676;BME280;39539;52.202;9.876;2022-10-16T01:31:10;100319.84;;;12.61;100.00
19676;BME280;39539;52.202;9.876;2022-10-16T01:33:46;100326.19;;;12.59;100.00
19676;BME280;39539;52.202;9.876;2022-10-16T01:36:21;100339.41;;;12.54;100.00
19676;BME280;39539;52.202;9.876;2022-10-16T01:38:52;100329.53;;;12.43;100.00
19676;BME280;39539;52.202;9.876;2022-10-16T01:41:31;100344.34;;;12.39;100.00
19676;BME280;39539;52.202;9.876;2022-10-16T01:44:04;100343.50;;;12.27;100.00
19676;BME280;39539;52.202;9.876;2022-10-16T01:46:31;100354.66;;;12.35;100.00
19676;BME280;39539;52.202;9.876;2022-10-16T01:49:00;100370.53;;;12.42;100.00
19676;BME280;39539;52.202;9.876;2022-10-16T01:51:27;100368.94;;;12.41;100.00
19676;BME280;39539;52.202;9.876;2022-10-16T01:53:55;100368.56;;;12.38;100.00
19676;BME280;39539;52.202;9.876;2022-10-16T01:56:24;100360.88;;;12.29;100.00
19676;BME280;39539;52.202;9.876;2022-10-16T01:58:56;100375.16;;;12.35;100.00
19676;BME280;39539;52.202;9.876;2022-10-16T02:01:26;100370.44;;;12.37;100.00
19676;BME280;39539;52.202;9.876;2022-10-16T02:03:55;100360.16;;;12.22;100.00
19676;BME280;39539;52.202;9.876;2022-10-16T02:06:22;100383.97;;;12.35;100.00
19676;BME280;39539;52.202;9.876;2022-10-16T02:08:48;100387.44;;;12.36;100.00
19676;BME280;39539;52.202;9.876;2022-10-16T02:11:14;100388.03;;;12.38;100.00
19676;BME280;39539;52.202;9.876;2022-10-16T02:13:53;100397.66;;;12.39;100.00
19676;BME280;39539;52.202;9.876;2022-10-16T02:16:20;100396.69;;;12.33;100.00
19676;BME280;39539;52.202;9.876;2022-10-16T02:18:45;100395.28;;;12.31;100.00
19676;BME280;39539;52.202;9.876;2022-10-16T02:21:25;100404.13;;;12.31;100.00
19676;BME280;39539;52.202;9.876;2022-10-16T02:24:06;100397.75;;;12.32;100.00
19676;BME280;39539;52.202;9.876;2022-10-16T02:26:40;100411.88;;;12.33;100.00
19676;BME280;39539;52.202;9.876;2022-10-16T02:29:12;100413.13;;;12.30;100.00
19676;BME280;39539;52.202;9.876;2022-10-16T02:31:41;100409.66;;;12.30;100.00
19676;BME280;39539;52.202;9.876;2022-10-16T02:34:09;100414.53;;;12.33;100.00
19676;BME280;39539;52.202;9.876;2022-10-16T02:36:38;100410.56;;;12.24;100.00
19676;BME280;39539;52.202;9.876;2022-10-16T02:39:05;100410.56;;;12.24;100.00
19676;BME280;39539;52.202;9.876;2022-10-16T02:41:32;100401.53;;;12.25;100.00
19676;BME280;39539;52.202;9.876;2022-10-16T02:43:57;100394.22;;;12.20;100.00
19676;BME280;39539;52.202;9.876;2022-10-16T02:46:23;100402.56;;;12.24;100.00
19676;BME280;39539;52.202;9.876;2022-10-16T02:48:48;100398.06;;;12.24;100.00
19676;BME280;39539;52.202;9.876;2022-10-16T02:51:13;100392.38;;;12.21;100.00
19676;BME280;39539;52.202;9.876;2022-10-16T02:53:39;100383.91;;;12.24;100.00
19676;BME280;39539;52.202;9.876;2022-10-16T02:56:04;100396.94;;;12.32;100.00
19676;BME280;39539;52.202;9.876;2022-10-16T02:58:29;100390.06;;;12.24;100.00
19676;BME280;39539;52.202;9.876;2022-10-16T03:00:55;100400.63;;;12.31;100.00
19676;BME280;39539;52.202;9.876;2022-10-16T03:03:21;100388.19;;;12.25;100.00
19676;BME280;39539;52.202;9.876;2022-10-16T03:05:46;100372.53;;;12.17;100.00
19676;BME280;39539;52.202;9.876;2022-10-16T03:08:13;100395.88;;;12.33;100.00
19676;BME280;39539;52.202;9.876;2022-10-16T03:10:38;100383.13;;;12.23;100.00
19676;BME280;39539;52.202;9.876;2022-10-16T03:13:03;100384.72;;;12.24;100.00
19676;BME280;39539;52.202;9.876;2022-10-16T03:15:29;100384.63;;;12.31;100.00
19676;BME280;39539;52.202;9.876;2022-10-16T03:17:57;100380.94;;;12.32;100.00
19676;BME280;39539;52.202;9.876;2022-10-16T03:20:22;100390.56;;;12.33;100.00
19676;BME280;39539;52.202;9.876;2022-10-16T03:22:48;100388.00;;;12.26;100.00
19676;BME280;39539;52.202;9.876;2022-10-16T03:25:13;100388.34;;;12.30;100.00
19676;BME280;39539;52.202;9.876;2022-10-16T03:27:39;100391.50;;;12.39;100.00
19676;BME280;39539;52.202;9.876;2022-10-16T03:30:04;100383.63;;;12.32;100.00
19676;BME280;39539;52.202;9.876;2022-10-16T03:32:30;100381.16;;;12.30;100.00
19676;BME280;39539;52.202;9.876;2022-10-16T03:34:55;100406.38;;;12.46;100.00
19676;BME280;39539;52.202;9.876;2022-10-16T03:37:22;100397.69;;;12.51;100.00
19676;BME280;39539;52.202;9.876;2022-10-16T03:39:47;100390.53;;;12.51;100.00
19676;BME280;39539;52.202;9.876;2022-10-16T03:42:12;100402.34;;;12.55;100.00
19676;BME280;39539;52.202;9.876;2022-10-16T03:44:38;100406.06;;;12.54;100.00
19676;BME280;39539;52.202;9.876;2022-10-16T03:47:03;100390.53;;;12.51;100.00
19676;BME280;39539;52.202;9.876;2022-10-16T03:49:28;100404.72;;;12.64;100.00
19676;BME280;39539;52.202;9.876;2022-10-16T03:51:54;100410.03;;;12.64;100.00
19676;BME280;39539;52.202;9.876;2022-10-16T03:54:20;100398.13;;;12.66;100.00
19676;BME280;39539;52.202;9.876;2022-10-16T03:56:48;100388.34;;;12.60;100.00
19676;BME280;39539;52.202;9.876;2022-10-16T03:59:13;100401.38;;;12.68;100.00
19676;BME280;39539;52.202;9.876;2022-10-16T04:01:39;100401.59;;;12.67;100.00
19676;BME280;39539;52.202;9.876;2022-10-16T04:04:04;100398.31;;;12.65;100.00
19676;BME280;39539;52.202;9.876;2022-10-16T04:06:30;100408.44;;;12.63;100.00
19676;BME280;39539;52.202;9.876;2022-10-16T04:08:55;100393.75;;;12.53;100.00
19676;BME280;39539;52.202;9.876;2022-10-16T04:11:21;100390.06;;;12.54;100.00
19676;BME280;39539;52.202;9.876;2022-10-16T04:13:46;100392.59;;;12.49;100.00
19676;BME280;39539;52.202;9.876;2022-10-16T04:16:12;100405.34;;;12.47;100.00
19676;BME280;39539;52.202;9.876;2022-10-16T04:18:37;100414.38;;;12.46;100.00
19676;BME280;39539;52.202;9.876;2022-10-16T04:21:04;100418.06;;;12.45;100.00
19676;BME280;39539;52.202;9.876;2022-10-16T04:23:30;100419.94;;;12.45;100.00
19676;BME280;39539;52.202;9.876;2022-10-16T04:25:55;100423.03;;;12.42;100.00
19676;BME280;39539;52.202;9.876;2022-10-16T04:28:20;100433.66;;;12.48;100.00
19676;BME280;39539;52.202;9.876;2022-10-16T04:30:46;100430.84;;;12.43;100.00
19676;BME280;39539;52.202;9.876;2022-10-16T04:33:11;100423.78;;;12.49;100.00
19676;BME280;39539;52.202;9.876;2022-10-16T04:35:38;100417.25;;;12.45;100.00
19676;BME280;39539;52.202;9.876;2022-10-16T04:38:03;100431.69;;;12.55;100.00
19676;BME280;39539;52.202;9.876;2022-10-16T04:40:29;100419.25;;;12.49;100.00
19676;BME280;39539;52.202;9.876;2022-10-16T04:42:58;100411.88;;;12.51;100.00
19676;BME280;39539;52.202;9.876;2022-10-16T04:45:25;100402.81;;;12.52;100.00
19676;BME280;39539;52.202;9.876;2022-10-16T04:47:50;100417.81;;;12.65;100.00
19676;BME280;39539;52.202;9.876;2022-10-16T04:50:16;100410.94;;;12.57;100.00
19676;BME280;39539;52.202;9.876;2022-10-16T04:52:41;100412.72;;;12.64;100.00
19676;BME280;39539;52.202;9.876;2022-10-16T04:55:07;100414.00;;;12.73;100.00
19676;BME280;39539;52.202;9.876;2022-10-16T04:57:32;100427.34;;;12.73;100.00
19676;BME280;39539;52.202;9.876;2022-10-16T04:59:58;100421.88;;;12.68;100.00
19676;BME280;39539;52.202;9.876;2022-10-16T05:02:24;100427.25;;;12.79;100.00
19676;BME280;39539;52.202;9.876;2022-10-16T05:04:51;100426.91;;;12.88;100.00
19676;BME280;39539;52.202;9.876;2022-10-16T05:07:16;100437.38;;;12.89;100.00
19676;BME280;39539;52.202;9.876;2022-10-16T05:09:41;100439.31;;;12.82;100.00
19676;BME280;39539;52.202;9.876;2022-10-16T05:12:07;100452.31;;;12.90;100.00
19676;BME280;39539;52.202;9.876;2022-10-16T05:14:32;100430.75;;;12.80;100.00
19676;BME280;39539;52.202;9.876;2022-10-16T05:16:59;100422.50;;;12.81;100.00
19676;BME280;39539;52.202;9.876;2022-10-16T05:19:24;100447.44;;;12.87;100.00
19676;BME280;39539;52.202;9.876;2022-10-16T05:21:50;100440.94;;;12.83;100.00
19676;BME280;39539;52.202;9.876;2022-10-16T05:24:15;100448.81;;;12.78;100.00
19676;BME280;39539;52.202;9.876;2022-10-16T05:26:40;100457.41;;;12.80;100.00
19676;BME280;39539;52.202;9.876;2022-10-16T05:29:06;100436.13;;;12.62;100.00
19676;BME280;39539;52.202;9.876;2022-10-16T05:31:31;100437.94;;;12.49;100.00
19676;BME280;39539;52.202;9.876;2022-10-16T05:34:00;100475.41;;;12.54;100.00
19676;BME280;39539;52.202;9.876;2022-10-16T05:36:26;100476.44;;;12.35;100.00
19676;BME280;39539;52.202;9.876;2022-10-16T05:38:51;100477.47;;;12.16;100.00
19676;BME280;39539;52.202;9.876;2022-10-16T05:41:17;100485.16;;;12.05;100.00
19676;BME280;39539;52.202;9.876;2022-10-16T05:43:46;100465.47;;;11.88;100.00
19676;BME280;39539;52.202;9.876;2022-10-16T05:46:12;100481.31;;;12.01;100.00
19676;BME280;39539;52.202;9.876;2022-10-16T05:48:37;100466.44;;;11.94;100.00
19676;BME280;39539;52.202;9.876;2022-10-16T05:51:07;100486.28;;;11.98;100.00
19676;BME280;39539;52.202;9.876;2022-10-16T05:53:35;100482.66;;;11.92;100.00
19676;BME280;39539;52.202;9.876;2022-10-16T05:56:01;100479.09;;;11.98;100.00
19676;BME280;39539;52.202;9.876;2022-10-16T05:58:35;100488.34;;;11.96;100.00
19676;BME280;39539;52.202;9.876;2022-10-16T06:03:34;100493.56;;;11.84;100.00
19676;BME280;39539;52.202;9.876;2022-10-16T06:06:14;100514.91;;;12.02;100.00
19676;BME280;39539;52.202;9.876;2022-10-16T06:08:41;100513.91;;;12.03;100.00
19676;BME280;39539;52.202;9.876;2022-10-16T06:11:13;100501.31;;;12.10;100.00
19676;BME280;39539;52.202;9.876;2022-10-16T06:13:39;100512.72;;;12.18;100.00
19676;BME280;39539;52.202;9.876;2022-10-16T06:16:07;100506.19;;;12.13;100.00
19676;BME280;39539;52.202;9.876;2022-10-16T06:18:33;100502.06;;;12.18;100.00
19676;BME280;39539;52.202;9.876;2022-10-16T06:20:58;100501.09;;;12.30;100.00
19676;BME280;39539;52.202;9.876;2022-10-16T06:23:25;100521.06;;;12.40;100.00
19676;BME280;39539;52.202;9.876;2022-10-16T06:25:51;100524.94;;;12.44;100.00
19676;BME280;39539;52.202;9.876;2022-10-16T06:28:16;100539.38;;;12.54;100.00
19676;BME280;39539;52.202;9.876;2022-10-16T06:30:42;100533.31;;;12.66;100.00
19676;BME280;39539;52.202;9.876;2022-10-16T06:33:11;100538.44;;;12.79;100.00
19676;BME280;39539;52.202;9.876;2022-10-16T06:35:36;100532.97;;;12.92;100.00
19676;BME280;39539;52.202;9.876;2022-10-16T06:38:02;100540.16;;;13.22;100.00
19676;BME280;39539;52.202;9.876;2022-10-16T06:40:27;100524.41;;;13.32;100.00
19676;BME280;39539;52.202;9.876;2022-10-16T06:42:55;100538.88;;;13.55;100.00
19676;BME280;39539;52.202;9.876;2022-10-16T06:45:20;100545.28;;;13.77;100.00
19676;BME280;39539;52.202;9.876;2022-10-16T06:47:45;100541.81;;;15.79;100.00
19676;BME280;39539;52.202;9.876;2022-10-16T06:50:11;100536.69;;;18.33;96.60
19676;BME280;39539;52.202;9.876;2022-10-16T06:52:36;100546.44;;;19.53;86.07
19676;BME280;39539;52.202;9.876;2022-10-16T06:55:02;100534.53;;;20.15;80.56
19676;BME280;39539;52.202;9.876;2022-10-16T06:57:28;100527.78;;;22.25;72.26
19676;BME280;39539;52.202;9.876;2022-10-16T06:59:53;100522.22;;;24.70;63.96
19676;BME280;39539;52.202;9.876;2022-10-16T07:02:19;100527.44;;;27.07;57.48
19676;BME280;39539;52.202;9.876;2022-10-16T07:04:44;100509.94;;;28.79;51.68
19676;BME280;39539;52.202;9.876;2022-10-16T07:07:10;100502.50;;;29.88;48.05
19676;BME280;39539;52.202;9.876;2022-10-16T07:09:35;100482.22;;;30.66;46.91
19676;BME280;39539;52.202;9.876;2022-10-16T07:12:01;100459.53;;;30.41;45.56
19676;BME280;39539;52.202;9.876;2022-10-16T07:14:26;100470.97;;;31.40;44.22
19676;BME280;39539;52.202;9.876;2022-10-16T07:16:52;100492.97;;;31.40;43.62
19676;BME280;39539;52.202;9.876;2022-10-16T07:19:17;100489.06;;;29.62;45.44
19676;BME280;39539;52.202;9.876;2022-10-16T07:21:43;100487.03;;;28.12;48.89
19676;BME280;39539;52.202;9.876;2022-10-16T07:24:14;100501.59;;;27.30;50.74
19676;BME280;39539;52.202;9.876;2022-10-16T07:26:41;100495.56;;;27.63;49.85
19676;BME280;39539;52.202;9.876;2022-10-16T07:29:18;100503.75;;;28.49;49.32
19676;BME280;39539;52.202;9.876;2022-10-16T07:31:45;100503.28;;;29.88;47.16
19676;BME280;39539;52.202;9.876;2022-10-16T07:34:12;100506.09;;;30.65;45.13
19676;BME280;39539;52.202;9.876;2022-10-16T07:36:38;100529.53;;;29.89;45.70
19676;BME280;39539;52.202;9.876;2022-10-16T07:39:03;100522.59;;;29.13;46.07
19676;BME280;39539;52.202;9.876;2022-10-16T07:41:29;100524.22;;;28.84;47.05
19676;BME280;39539;52.202;9.876;2022-10-16T07:43:55;100527.78;;;28.85;47.50
19676;BME280;39539;52.202;9.876;2022-10-16T07:46:22;100517.22;;;30.08;45.83
19676;BME280;39539;52.202;9.876;2022-10-16T07:48:50;100518.75;;;29.60;45.45
19676;BME280;39539;52.202;9.876;2022-10-16T07:51:21;100517.13;;;29.13;46.77
19676;BME280;39539;52.202;9.876;2022-10-16T07:53:46;100520.94;;;28.11;49.17
19676;BME280;39539;52.202;9.876;2022-10-16T07:56:13;100531.91;;;27.55;49.53
19676;BME280;39539;52.202;9.876;2022-10-16T07:58:39;100523.41;;;26.70;52.83
19676;BME280;39539;52.202;9.876;2022-10-16T08:01:06;100515.41;;;25.85;54.19
19676;BME280;39539;52.202;9.876;2022-10-16T08:03:32;100523.88;;;24.43;57.94
19676;BME280;39539;52.202;9.876;2022-10-16T08:05:58;100544.78;;;22.93;62.62
19676;BME280;39539;52.202;9.876;2022-10-16T08:08:24;100549.34;;;22.06;67.25
19676;BME280;39539;52.202;9.876;2022-10-16T08:10:49;100549.69;;;22.00;69.33
19676;BME280;39539;52.202;9.876;2022-10-16T08:13:15;100547.50;;;21.33;71.86
19676;BME280;39539;52.202;9.876;2022-10-16T08:15:42;100585.53;;;21.07;73.57
19676;BME280;39539;52.202;9.876;2022-10-16T08:18:09;100574.41;;;20.54;76.83
19676;BME280;39539;52.202;9.876;2022-10-16T08:20:35;100591.19;;;20.41;78.09
19676;BME280;39539;52.202;9.876;2022-10-16T08:23:00;100585.78;;;20.36;79.05
19676;BME280;39539;52.202;9.876;2022-10-16T08:25:26;100603.59;;;20.47;80.89
19676;BME280;39539;52.202;9.876;2022-10-16T08:27:51;100599.81;;;20.53;80.09
19676;BME280;39539;52.202;9.876;2022-10-16T08:30:19;100612.78;;;20.41;79.76
19676;BME280;39539;52.202;9.876;2022-10-16T08:32:44;100623.06;;;19.98;82.08
19676;BME280;39539;52.202;9.876;2022-10-16T08:35:11;100605.81;;;19.94;82.55
19676;BME280;39539;52.202;9.876;2022-10-16T08:37:37;100628.44;;;20.39;80.78
19676;BME280;39539;52.202;9.876;2022-10-16T08:40:05;100608.75;;;20.18;80.45
19676;BME280;39539;52.202;9.876;2022-10-16T08:48:09;100628.97;;;20.61;81.86
19676;BME280;39539;52.202;9.876;2022-10-16T08:50:40;100619.13;;;20.86;78.84
19676;BME280;39539;52.202;9.876;2022-10-16T08:53:06;100626.09;;;21.02;77.77
19676;BME280;39539;52.202;9.876;2022-10-16T08:55:38;100628.81;;;20.97;77.33
19676;BME280;39539;52.202;9.876;2022-10-16T08:58:15;100638.16;;;20.40;79.24
19676;BME280;39539;52.202;9.876;2022-10-16T09:00:42;100641.16;;;19.98;78.88
19676;BME280;39539;52.202;9.876;2022-10-16T09:03:19;100640.63;;;19.90;80.71
19676;BME280;39539;52.202;9.876;2022-10-16T09:08:43;100626.16;;;19.03;83.84
19676;BME280;39539;52.202;9.876;2022-10-16T09:14:29;100663.69;;;18.72;87.22
19676;BME280;39539;52.202;9.876;2022-10-16T09:20:24;100662.56;;;18.68;86.27
19676;BME280;39539;52.202;9.876;2022-10-16T09:22:55;100654.69;;;18.56;85.10
19676;BME280;39539;52.202;9.876;2022-10-16T09:25:25;100673.34;;;18.68;86.69
19676;BME280;39539;52.202;9.876;2022-10-16T09:27:52;100676.31;;;18.67;88.72
19676;BME280;39539;52.202;9.876;2022-10-16T09:30:19;100672.25;;;18.64;87.54
19676;BME280;39539;52.202;9.876;2022-10-16T09:32:50;100668.06;;;18.41;86.88
19676;BME280;39539;52.202;9.876;2022-10-16T09:35:22;100672.06;;;18.33;88.66
19676;BME280;39539;52.202;9.876;2022-10-16T09:37:54;100687.47;;;18.43;88.16
19676;BME280;39539;52.202;9.876;2022-10-16T09:45:43;100685.75;;;18.69;85.18
19676;BME280;39539;52.202;9.876;2022-10-16T09:48:12;100703.22;;;19.87;80.39
19676;BME280;39539;52.202;9.876;2022-10-16T09:50:37;100688.94;;;21.34;72.89
19676;BME280;39539;52.202;9.876;2022-10-16T09:53:13;100689.56;;;22.92;66.53
19676;BME280;39539;52.202;9.876;2022-10-16T09:55:52;100682.22;;;22.97;64.64
19676;BME280;39539;52.202;9.876;2022-10-16T09:58:21;100673.66;;;22.61;64.68
19676;BME280;39539;52.202;9.876;2022-10-16T10:00:54;100677.78;;;21.90;68.08
19676;BME280;39539;52.202;9.876;2022-10-16T10:03:40;100680.66;;;21.15;72.86
19676;BME280;39539;52.202;9.876;2022-10-16T10:06:25;100679.19;;;20.68;73.30
19676;BME280;39539;52.202;9.876;2022-10-16T10:11:48;100684.06;;;20.35;77.44
19676;BME280;39539;52.202;9.876;2022-10-16T10:14:34;100684.06;;;20.40;76.14
19676;BME280;39539;52.202;9.876;2022-10-16T10:30:22;100700.28;;;21.36;70.10
19676;BME280;39539;52.202;9.876;2022-10-16T10:46:34;100698.91;;;19.91;74.24
19676;BME280;39539;52.202;9.876;2022-10-16T10:49:04;100710.53;;;20.07;75.48
19676;BME280;39539;52.202;9.876;2022-10-16T10:51:53;100692.16;;;20.14;72.90
19676;BME280;39539;52.202;9.876;2022-10-16T10:54:38;100716.19;;;20.21;71.28
19676;BME280;39539;52.202;9.876;2022-10-16T10:57:30;100688.66;;;19.93;70.01
19676;BME280;39539;52.202;9.876;2022-10-16T11:05:45;100711.03;;;19.84;73.03
19676;BME280;39539;52.202;9.876;2022-10-16T11:11:23;100699.69;;;19.77;71.46
19676;BME280;39539;52.202;9.876;2022-10-16T11:14:19;100703.22;;;19.82;72.30
19676;BME280;39539;52.202;9.876;2022-10-16T11:19:25;100699.16;;;19.74;72.41
19676;BME280;39539;52.202;9.876;2022-10-16T11:22:01;100710.22;;;19.73;73.59
19676;BME280;39539;52.202;9.876;2022-10-16T11:24:45;100702.13;;;19.78;71.63
19676;BME280;39539;52.202;9.876;2022-10-16T11:27:21;100701.59;;;19.76;68.59
19676;BME280;39539;52.202;9.876;2022-10-16T11:30:13;100704.03;;;19.83;68.37
19676;BME280;39539;52.202;9.876;2022-10-16T11:32:52;100697.56;;;19.89;69.07
19676;BME280;39539;52.202;9.876;2022-10-16T11:35:32;100701.31;;;19.98;68.00
19676;BME280;39539;52.202;9.876;2022-10-16T11:38:02;100716.44;;;20.09;68.75
19676;BME280;39539;52.202;9.876;2022-10-16T11:40:33;100698.09;;;20.06;67.36
19676;BME280;39539;52.202;9.876;2022-10-16T11:43:13;100707.81;;;20.17;67.46
19676;BME280;39539;52.202;9.876;2022-10-16T11:45:47;100720.22;;;20.24;68.87
19676;BME280;39539;52.202;9.876;2022-10-16T11:50:46;100722.94;;;20.39;69.18
19676;BME280;39539;52.202;9.876;2022-10-16T11:56:00;100709.97;;;20.46;65.58
19676;BME280;39539;52.202;9.876;2022-10-16T11:58:30;100719.69;;;20.68;64.01
19676;BME280;39539;52.202;9.876;2022-10-16T12:01:18;100725.34;;;20.87;66.50
19676;BME280;39539;52.202;9.876;2022-10-16T12:04:03;100728.53;;;20.94;63.33
19676;BME280;39539;52.202;9.876;2022-10-16T12:08:54;100721.34;;;20.58;62.26
19676;BME280;39539;52.202;9.876;2022-10-16T12:11:33;100715.34;;;20.51;63.03
19676;BME280;39539;52.202;9.876;2022-10-16T12:19:23;100728.06;;;20.66;64.14
19676;BME280;39539;52.202;9.876;2022-10-16T12:21:50;100729.66;;;20.52;64.86
19676;BME280;39539;52.202;9.876;2022-10-16T12:24:38;100727.50;;;20.49;64.81
19676;BME280;39539;52.202;9.876;2022-10-16T12:27:21;100713.75;;;20.40;65.23
19676;BME280;39539;52.202;9.876;2022-10-16T12:29:54;100711.06;;;20.30;64.26
19676;BME280;39539;52.202;9.876;2022-10-16T12:32:30;100721.06;;;20.24;63.98
19676;BME280;39539;52.202;9.876;2022-10-16T12:34:57;100732.38;;;20.26;64.72
19676;BME280;39539;52.202;9.876;2022-10-16T12:37:28;100740.22;;;20.33;64.75
19676;BME280;39539;52.202;9.876;2022-10-16T12:39:56;100726.69;;;20.38;65.52
19676;BME280;39539;52.202;9.876;2022-10-16T12:44:52;100738.59;;;20.32;64.68
19676;BME280;39539;52.202;9.876;2022-10-16T12:47:23;100730.25;;;20.13;64.71
19676;BME280;39539;52.202;9.876;2022-10-16T12:49:59;100731.53;;;19.95;66.09
19676;BME280;39539;52.202;9.876;2022-10-16T12:52:27;100746.13;;;19.99;66.76
19676;BME280;39539;52.202;9.876;2022-10-16T12:54:57;100733.69;;;19.83;67.19
19676;BME280;39539;52.202;9.876;2022-10-16T12:57:59;100760.97;;;19.91;66.92
19676;BME280;39539;52.202;9.876;2022-10-16T13:06:14;100771.81;;;19.39;68.50
19676;BME280;39539;52.202;9.876;2022-10-16T13:14:07;100773.22;;;18.99;67.63
19676;BME280;39539;52.202;9.876;2022-10-16T13:19:53;100781.16;;;18.78;69.99
19676;BME280;39539;52.202;9.876;2022-10-16T13:25:06;100790.84;;;18.79;71.05
19676;BME280;39539;52.202;9.876;2022-10-16T13:27:49;100779.84;;;18.81;70.15
19676;BME280;39539;52.202;9.876;2022-10-16T13:32:50;100789.28;;;18.83;68.50
19676;BME280;39539;52.202;9.876;2022-10-16T13:35:29;100806.09;;;19.01;69.29
19676;BME280;39539;52.202;9.876;2022-10-16T13:38:13;100797.56;;;19.14;68.31
19676;BME280;39539;52.202;9.876;2022-10-16T13:41:02;100801.91;;;19.20;69.95
19676;BME280;39539;52.202;9.876;2022-10-16T13:43:49;100812.22;;;19.28;69.97
19676;BME280;39539;52.202;9.876;2022-10-16T13:46:18;100808.44;;;19.29;69.27
19676;BME280;39539;52.202;9.876;2022-10-16T13:48:45;100817.56;;;19.23;70.02
19676;BME280;39539;52.202;9.876;2022-10-16T13:51:20;100796.22;;;19.12;69.98
19676;BME280;39539;52.202;9.876;2022-10-16T13:53:46;100810.00;;;19.20;69.78
19676;BME280;39539;52.202;9.876;2022-10-16T13:56:14;100794.03;;;19.09;68.70
19676;BME280;39539;52.202;9.876;2022-10-16T13:58:40;100792.19;;;19.14;69.76
19676;BME280;39539;52.202;9.876;2022-10-16T14:03:45;100798.13;;;19.21;68.72
19676;BME280;39539;52.202;9.876;2022-10-16T14:06:14;100803.97;;;19.03;70.38
19676;BME280;39539;52.202;9.876;2022-10-16T14:09:39;100801.69;;;18.84;70.30
19676;BME280;39539;52.202;9.876;2022-10-16T14:11:50;100820.63;;;18.68;73.04
19676;BME280;39539;52.202;9.876;2022-10-16T14:14:17;100834.22;;;18.51;73.67
19676;BME280;39539;52.202;9.876;2022-10-16T14:16:44;100821.72;;;18.39;73.50
19676;BME280;39539;52.202;9.876;2022-10-16T14:19:21;100827.19;;;18.45;73.87
19676;BME280;39539;52.202;9.876;2022-10-16T14:21:49;100840.22;;;18.58;74.41
19676;BME280;39539;52.202;9.876;2022-10-16T14:24:31;100855.34;;;18.64;74.74
19676;BME280;39539;52.202;9.876;2022-10-16T14:26:58;100837.00;;;18.61;74.98
19676;BME280;39539;52.202;9.876;2022-10-16T14:29:25;100853.88;;;18.78;73.15
19676;BME280;39539;52.202;9.876;2022-10-16T14:34:29;100858.19;;;18.79;71.52
19676;BME280;39539;52.202;9.876;2022-10-16T14:36:59;100843.00;;;18.68;71.89
19676;BME280;39539;52.202;9.876;2022-10-16T14:39:27;100867.34;;;18.78;74.18
19676;BME280;39539;52.202;9.876;2022-10-16T14:41:55;100835.13;;;18.61;74.79
19676;BME280;39539;52.202;9.876;2022-10-16T14:44:28;100854.25;;;18.60;75.19
19676;BME280;39539;52.202;9.876;2022-10-16T14:46:54;100855.81;;;18.56;73.91
19676;BME280;39539;52.202;9.876;2022-10-16T14:49:21;100839.19;;;18.37;73.42
19676;BME280;39539;52.202;9.876;2022-10-16T14:51:47;100856.69;;;18.34;74.79
19676;BME280;39539;52.202;9.876;2022-10-16T14:54:17;100865.75;;;18.28;74.65
19676;BME280;39539;52.202;9.876;2022-10-16T14:56:50;100862.97;;;18.18;75.25
19676;BME280;39539;52.202;9.876;2022-10-16T15:01:49;100854.69;;;17.98;77.70
19676;BME280;39539;52.202;9.876;2022-10-16T15:04:15;100871.56;;;17.93;77.14